Time;durP1;ratioP1;P1;durP2;ratioP2;P2;SDS_P1;SDS_P2;PMS_P1;PMS_P2;Temp;Humidity;BMP_temperature;BMP_pressure;BME280_temperature;BME280_humidity;BME280_pressure;Samples;Min_cycle;Max_cycle;Signal;HPM_P1;HPM_P2
2023/10/11 00:00:56;;;;;;;20.17;10.23;;;;;;;15.65;100.00;101124.38;4960791;28;20055;-76
2023/10/11 00:05:53;;;;;;;22.40;11.10;;;;;;;15.64;100.00;101130.59;4935685;28;20617;-76
2023/10/11 00:08:29;;;;;;;20.38;11.50;;;;;;;15.64;100.00;101130.59;4947505;28;20049;-76
2023/10/11 00:10:59;;;;;;;25.98;12.15;;;;;;;15.64;100.00;101120.84;4958609;28;20051;-76
2023/10/11 00:13:32;;;;;;;;;;;;;;;15.63;100.00;101115.56;4963414;28;20058;-76
2023/10/11 00:16:09;;;;;;;24.85;12.75;;;;;;;15.62;100.00;101117.34;4947885;28;19922;-76
2023/10/11 00:18:45;;;;;;;23.13;12.10;;;;;;;15.62;100.00;101120.00;4882490;28;20058;-76
2023/10/11 00:21:16;;;;;;;24.30;11.93;;;;;;;15.63;100.00;101112.91;4946527;28;20042;-76
2023/10/11 00:23:48;;;;;;;24.83;13.40;;;;;;;15.64;100.00;101106.69;4898637;28;20047;-76
2023/10/11 00:26:17;;;;;;;29.55;12.60;;;;;;;15.63;100.00;101102.28;4958777;28;20082;-76
2023/10/11 00:28:55;;;;;;;27.42;13.02;;;;;;;15.63;100.00;101100.47;4947353;28;20058;-76
2023/10/11 00:31:22;;;;;;;27.27;13.48;;;;;;;15.63;100.00;101092.50;4969070;28;20081;-76
2023/10/11 00:33:49;;;;;;;28.08;14.02;;;;;;;15.64;100.00;101096.06;4905041;28;20058;-76
2023/10/11 00:36:26;;;;;;;32.20;14.60;;;;;;;15.64;100.00;101098.72;4941020;28;20058;-76
2023/10/11 00:38:53;;;;;;;33.58;14.88;;;;;;;15.64;100.00;101088.09;4966841;28;20054;-76
2023/10/11 00:41:20;;;;;;;32.60;14.52;;;;;;;15.65;100.00;101088.09;4951650;28;20054;-76
2023/10/11 00:43:52;;;;;;;36.80;15.63;;;;;;;15.67;100.00;101088.94;4931693;28;20081;-76
2023/10/11 00:46:36;;;;;;;40.33;15.02;;;;;;;15.67;100.00;101088.03;4952053;28;20046;-76
2023/10/11 00:49:14;;;;;;;33.28;14.52;;;;;;;15.68;100.00;101081.84;4888596;28;20050;-76
2023/10/11 00:51:46;;;;;;;34.63;16.77;;;;;;;15.69;100.00;101086.25;4918945;28;20062;-76
2023/10/11 00:54:15;;;;;;;32.50;15.52;;;;;;;15.69;100.00;101088.91;4947271;28;20050;-76
2023/10/11 00:56:49;;;;;;;35.10;16.67;;;;;;;15.70;100.00;101085.34;4923237;28;20238;-76
2023/10/11 00:59:20;;;;;;;39.33;16.35;;;;;;;15.69;100.00;101071.19;4928359;28;20047;-76
2023/10/11 01:01:47;;;;;;;39.42;15.80;;;;;;;15.71;100.00;101066.75;4948880;28;20050;-76
2023/10/11 01:04:15;;;;;;;34.67;16.45;;;;;;;15.73;100.00;101061.41;4887985;28;20045;-76
2023/10/11 01:06:48;;;;;;;38.25;15.75;;;;;;;15.73;100.00;101062.31;4939035;28;20077;-76
2023/10/11 01:09:17;;;;;;;41.53;16.65;;;;;;;15.73;100.00;101054.34;4952525;28;20051;-76
2023/10/11 01:11:47;;;;;;;36.90;18.05;;;;;;;15.73;100.00;101058.75;4941024;28;20489;-76
2023/10/11 01:14:15;;;;;;;38.35;15.77;;;;;;;15.74;100.00;101063.19;4932391;28;20047;-76
2023/10/11 01:16:42;;;;;;;39.97;17.02;;;;;;;15.73;100.00;101062.31;4965569;28;20051;-76
2023/10/11 01:19:11;;;;;;;33.53;16.90;;;;;;;15.74;100.00;101057.88;4894729;28;20051;-76
2023/10/11 01:21:39;;;;;;;34.10;16.60;;;;;;;15.73;100.00;101057.00;4947054;29;20055;-76
2023/10/11 01:24:10;;;;;;;40.58;16.92;;;;;;;15.73;100.00;101054.34;4904985;28;20062;-76
2023/10/11 01:26:37;;;;;;;45.90;17.25;;;;;;;15.73;100.00;101053.44;4946399;28;20046;-76
2023/10/11 01:29:05;;;;;;;36.90;17.02;;;;;;;15.73;100.00;101056.09;4942022;28;20050;-76
2023/10/11 01:31:34;;;;;;;37.35;17.15;;;;;;;15.72;100.00;101047.22;4936535;28;20066;-76
2023/10/11 01:34:02;;;;;;;40.22;16.65;;;;;;;15.74;100.00;101045.44;4896720;28;20059;-76
2023/10/11 01:36:30;;;;;;;35.45;16.30;;;;;;;15.72;100.00;101047.22;4950624;28;20046;-76
2023/10/11 01:39:06;;;;;;;38.10;16.85;;;;;;;15.72;100.00;101044.56;4916423;28;20050;-76
2023/10/11 01:41:42;;;;;;;43.38;17.30;;;;;;;15.72;100.00;101041.03;4957028;28;20090;-76
2023/10/11 01:44:11;;;;;;;44.03;17.33;;;;;;;15.72;100.00;101052.53;4916073;28;20850;-76
2023/10/11 01:46:39;;;;;;;38.58;16.13;;;;;;;15.72;100.00;101052.53;4905058;29;20047;-76
2023/10/11 01:49:10;;;;;;;37.38;17.20;;;;;;;15.72;100.00;101056.97;4913834;28;20042;-76
2023/10/11 01:51:46;;;;;;;33.70;17.27;;;;;;;15.71;100.00;101050.81;4945339;28;20073;-76
2023/10/11 01:54:15;;;;;;;40.22;16.27;;;;;;;15.71;100.00;101047.28;4935077;28;20050;-76
2023/10/11 01:56:43;;;;;;;37.53;15.70;;;;;;;15.70;100.00;101041.06;4942175;28;20054;-75
2023/10/11 01:59:12;;;;;;;46.03;17.35;;;;;;;15.70;100.00;101035.75;4930847;28;20061;-76
2023/10/11 02:01:40;;;;;;;34.65;17.25;;;;;;;15.71;100.00;101023.38;4948650;28;20058;-76
2023/10/11 02:04:20;;;;;;;41.70;16.52;;;;;;;15.72;100.00;101027.75;4914398;28;20070;-76
2023/10/11 02:06:48;;;;;;;34.65;16.92;;;;;;;15.72;100.00;101022.44;4938366;28;20497;-76
2023/10/11 02:09:20;;;;;;;40.13;17.15;;;;;;;15.72;100.00;101025.97;4935540;28;20058;-76
2023/10/11 02:11:52;;;;;;;32.80;15.55;;;;;;;15.72;100.00;101011.81;4956889;28;20050;-76
2023/10/11 02:14:22;;;;;;;44.63;18.27;;;;;;;15.72;100.00;101007.38;4951381;28;20515;-75
2023/10/11 02:16:53;;;;;;;39.17;15.98;;;;;;;15.72;100.00;101011.81;4922341;28;20043;-76
2023/10/11 02:19:24;;;;;;;39.95;15.68;;;;;;;15.72;100.00;101007.38;4919618;28;20473;-76
2023/10/11 02:21:53;;;;;;;43.92;15.73;;;;;;;15.73;100.00;101005.63;4949588;28;20047;-76
2023/10/11 02:24:25;;;;;;;36.78;16.00;;;;;;;15.71;100.00;101002.97;4951650;28;20042;-76
2023/10/11 02:26:54;;;;;;;38.65;15.70;;;;;;;15.72;100.00;100985.25;4922466;28;20047;-76
2023/10/11 02:29:25;;;;;;;38.55;15.38;;;;;;;15.74;100.00;100994.09;4937305;28;20035;-76
2023/10/11 02:31:55;;;;;;;35.35;16.23;;;;;;;15.73;100.00;100993.25;4935727;28;20933;-76
2023/10/11 02:34:23;;;;;;;37.47;16.88;;;;;;;15.73;100.00;100981.72;4951244;28;20050;-76
2023/10/11 02:37:05;;;;;;;36.60;15.60;;;;;;;15.72;100.00;100987.91;4894577;28;20050;-77
2023/10/11 02:39:33;;;;;;;34.72;15.63;;;;;;;15.71;100.00;100970.22;4949009;28;20596;-75
2023/10/11 02:42:05;;;;;;;42.10;16.48;;;;;;;15.69;100.00;100978.22;4922692;28;20182;-76
2023/10/11 02:44:39;;;;;;;42.67;16.23;;;;;;;15.69;100.00;100978.22;4967757;28;20046;-75
2023/10/11 02:47:08;;;;;;;42.53;15.98;;;;;;;15.68;100.00;100976.44;4921289;28;20066;-76
2023/10/11 02:49:36;;;;;;;35.75;16.55;;;;;;;15.68;100.00;100986.22;4917905;28;20049;-75
2023/10/11 02:52:07;;;;;;;42.55;16.13;;;;;;;15.66;100.00;100980.91;4934674;28;20062;-76
2023/10/11 02:54:39;;;;;;;38.85;17.50;;;;;;;15.66;100.00;100986.22;4958117;28;20058;-76
2023/10/11 02:57:20;;;;;;;39.78;15.68;;;;;;;15.65;100.00;100972.97;4936131;28;20051;-76
2023/10/11 02:59:50;;;;;;;38.50;16.38;;;;;;;15.63;100.00;100972.13;4949724;28;20051;-76
2023/10/11 03:02:21;;;;;;;43.70;16.67;;;;;;;15.63;100.00;100967.66;4933864;28;20389;-76
2023/10/11 03:04:51;;;;;;;;;;;;;;;15.62;100.00;100957.97;4922006;28;20423;-76
2023/10/11 03:07:21;;;;;;;37.63;16.23;;;;;;;15.60;100.00;100973.91;4921132;28;20343;-78
2023/10/11 03:09:54;;;;;;;45.13;16.90;;;;;;;15.60;100.00;100975.69;4943822;28;20047;-78
2023/10/11 03:12:34;;;;;;;43.20;16.77;;;;;;;15.59;100.00;100976.59;4940706;28;20054;-79
2023/10/11 03:15:09;;;;;;;42.03;16.63;;;;;;;15.60;100.00;100978.34;4934823;29;20051;-78
2023/10/11 03:17:45;;;;;;;38.67;15.98;;;;;;;15.59;100.00;100977.50;4953160;28;20412;-80
2023/10/11 03:21:07;;;;;;;46.28;17.10;;;;;;;15.60;100.00;100971.25;4941796;28;20061;-78
2023/10/11 03:23:03;;;;;;;34.70;14.88;;;;;;;15.59;100.00;100956.25;4910923;28;20058;-78
2023/10/11 03:25:32;;;;;;;38.08;15.98;;;;;;;15.59;100.00;100953.59;4952207;28;20051;-77
2023/10/11 03:27:59;;;;;;;36.47;16.05;;;;;;;15.61;100.00;100964.16;4931901;28;20066;-79
2023/10/11 03:30:27;;;;;;;42.53;15.57;;;;;;;15.63;100.00;100956.19;4917306;28;20050;-80
2023/10/11 03:32:55;;;;;;;35.58;16.40;;;;;;;15.62;100.00;100951.78;4936835;28;20043;-77
2023/10/11 03:35:25;;;;;;;38.42;15.60;;;;;;;15.63;100.00;100945.53;4941586;28;20057;-77
2023/10/11 03:37:59;;;;;;;42.47;15.27;;;;;;;15.63;100.00;100949.06;4903821;28;20051;-77
2023/10/11 03:40:34;;;;;;;38.10;16.63;;;;;;;15.65;100.00;100954.38;4918080;28;20434;-77
2023/10/11 03:43:11;;;;;;;40.08;15.02;;;;;;;15.65;100.00;100972.97;4925405;28;20495;-77
2023/10/11 03:45:39;;;;;;;35.72;15.25;;;;;;;15.65;100.00;100965.00;4928932;28;20711;-78
2023/10/11 03:48:09;;;;;;;31.23;15.35;;;;;;;15.66;100.00;100964.97;4951196;28;20050;-77
2023/10/11 03:50:47;;;;;;;39.97;15.30;;;;;;;15.68;100.00;100970.28;4911711;28;20051;-77
2023/10/11 03:53:15;;;;;;;34.83;15.13;;;;;;;15.67;100.00;100945.50;4917296;28;20043;-78
2023/10/11 03:55:47;;;;;;;42.33;16.17;;;;;;;15.68;100.00;100954.34;4970905;28;20063;-78
2023/10/11 03:58:51;;;;;;;40.28;16.83;;;;;;;15.69;100.00;100953.41;4948961;28;20046;-78
2023/10/11 04:03:40;;;;;;;36.22;15.23;;;;;;;15.68;100.00;100960.50;4943858;28;20051;-78
2023/10/11 04:06:15;;;;;;;35.90;14.85;;;;;;;15.67;100.00;100953.47;4927747;28;20062;-77
2023/10/11 04:08:47;;;;;;;39.03;16.00;;;;;;;15.67;100.00;100934.88;4910820;28;20051;-78
2023/10/11 04:11:19;;;;;;;37.13;14.88;;;;;;;15.65;100.00;100939.34;4951424;28;20077;-78
2023/10/11 04:13:47;;;;;;;39.63;14.52;;;;;;;15.64;100.00;100942.00;4937652;28;20066;-78
2023/10/11 04:16:17;;;;;;;35.35;16.42;;;;;;;15.63;100.00;100951.72;4925819;28;20401;-78
2023/10/11 04:18:45;;;;;;;34.30;15.77;;;;;;;15.58;100.00;100946.50;4940695;28;20046;-78
2023/10/11 04:23:58;;;;;;;41.63;15.30;;;;;;;15.54;100.00;100944.81;4927209;28;20047;-78
2023/10/11 04:26:33;;;;;;;33.50;15.32;;;;;;;15.53;100.00;100951.00;4926173;28;20521;-78
2023/10/11 04:29:06;;;;;;;33.00;13.93;;;;;;;15.52;100.00;100965.19;4969120;28;20418;-78
2023/10/11 04:32:09;;;;;;;36.60;14.88;;;;;;;15.50;100.00;100956.38;4945591;28;20042;-78
2023/10/11 04:34:38;;;;;;;36.97;14.57;;;;;;;15.47;100.00;100953.75;4956652;28;20055;-78
2023/10/11 04:37:16;;;;;;;39.40;14.45;;;;;;;15.45;100.00;100963.53;4936861;28;20063;-77
2023/10/11 04:39:50;;;;;;;33.13;14.23;;;;;;;15.44;100.00;100967.06;4908710;28;20054;-78
2023/10/11 04:42:19;;;;;;;45.90;14.98;;;;;;;15.42;100.00;100971.53;4936458;28;20483;-78
2023/10/11 04:44:54;;;;;;;49.45;14.70;;;;;;;15.40;100.00;100965.38;4955554;28;20047;-78
2023/10/11 04:47:23;;;;;;;36.95;15.35;;;;;;;15.39;100.00;100972.47;4929389;28;20078;-78
2023/10/11 04:49:54;;;;;;;33.17;13.50;;;;;;;15.38;100.00;100962.72;4938696;28;20404;-78
2023/10/11 04:52:31;;;;;;;40.35;14.85;;;;;;;15.38;100.00;100951.25;4955156;28;20055;-78
2023/10/11 04:55:09;;;;;;;37.55;14.18;;;;;;;15.37;100.00;100958.34;4912571;28;20051;-78
2023/10/11 04:57:48;;;;;;;32.42;13.65;;;;;;;15.37;100.00;100949.50;4952887;28;20050;-78
2023/10/11 05:00:18;;;;;;;36.95;14.48;;;;;;;15.37;100.00;100944.19;4944858;28;20046;-77
2023/10/11 05:02:58;;;;;;;35.83;15.25;;;;;;;15.36;100.00;100945.09;4942136;28;20059;-78
2023/10/11 05:05:27;;;;;;;39.70;15.07;;;;;;;15.36;100.00;100947.75;4901337;28;20054;-77
2023/10/11 05:08:05;;;;;;;36.83;14.27;;;;;;;15.35;100.00;100946.88;4944920;28;20050;-78
2023/10/11 05:10:43;;;;;;;29.10;12.68;;;;;;;15.34;100.00;100954.84;4883201;28;20524;-77
2023/10/11 05:13:13;;;;;;;36.53;12.65;;;;;;;15.33;100.00;100938.06;4943986;28;20069;-78
2023/10/11 05:15:47;;;;;;;37.00;14.65;;;;;;;15.32;100.00;100946.91;4934782;28;20066;-77
2023/10/11 05:18:24;;;;;;;37.53;13.07;;;;;;;15.32;100.00;100952.22;4928027;28;20043;-77
2023/10/11 05:21:00;;;;;;;34.45;13.13;;;;;;;15.33;100.00;100955.72;4948145;28;20062;-78
2023/10/11 05:24:03;;;;;;;35.28;13.15;;;;;;;15.31;100.00;100952.22;4892580;29;20458;-77
2023/10/11 05:26:47;;;;;;;44.33;12.98;;;;;;;15.31;100.00;100944.25;4904191;28;20099;-77
2023/10/11 05:29:24;;;;;;;28.10;12.13;;;;;;;15.30;100.00;100945.19;4947660;28;20058;-78
2023/10/11 05:35:19;;;;;;;31.45;12.10;;;;;;;15.31;100.00;100946.91;4943805;28;20047;-79
2023/10/11 05:51:28;;;;;;;28.27;11.75;;;;;;;15.29;100.00;100928.38;4938719;28;20051;-83
2023/10/11 05:53:56;;;;;;;26.60;9.75;;;;;;;15.29;100.00;100932.78;4938217;28;20845;-83
2023/10/11 05:56:23;;;;;;;33.70;10.88;;;;;;;15.30;100.00;100915.97;4941882;28;20066;-80
2023/10/11 05:58:55;;;;;;;30.63;10.57;;;;;;;15.31;100.00;100915.97;4916313;28;20058;-81
2023/10/11 06:01:23;;;;;;;30.80;10.05;;;;;;;15.34;100.00;100915.03;4924669;29;20082;-79
2023/10/11 06:03:51;;;;;;;26.42;10.93;;;;;;;15.37;100.00;100917.66;4929199;29;20047;-80
2023/10/11 06:06:37;;;;;;;29.20;12.25;;;;;;;15.38;100.00;100920.25;4921501;28;20469;-80
2023/10/11 06:09:17;;;;;;;27.42;10.40;;;;;;;15.43;100.00;100924.63;4923823;29;20054;-79
2023/10/11 06:11:50;;;;;;;33.95;11.82;;;;;;;15.46;100.00;100917.47;4911049;28;20068;-79
2023/10/11 06:14:19;;;;;;;23.67;10.63;;;;;;;15.49;100.00;100938.69;4905867;29;20051;-82
2023/10/11 06:16:57;;;;;;;31.42;9.93;;;;;;;15.51;100.00;100939.53;4919215;29;20058;-81
2023/10/11 06:19:27;;;;;;;30.88;11.07;;;;;;;15.55;100.00;100943.88;4955258;28;20019;-77
2023/10/11 06:21:56;;;;;;;31.08;10.15;;;;;;;15.58;100.00;100953.59;4905521;29;20055;-81
2023/10/11 06:24:33;;;;;;;37.80;12.00;;;;;;;15.62;100.00;100943.81;4933920;29;20055;-81
2023/10/11 06:29:45;;;;;;;27.55;10.35;;;;;;;15.68;100.00;100949.03;4905167;28;20903;-80
2023/10/11 06:32:12;;;;;;;23.13;11.18;;;;;;;15.70;100.00;100945.41;4922450;29;20051;-82
2023/10/11 06:34:48;;;;;;;30.83;11.38;;;;;;;15.72;100.00;100946.28;4932872;28;20050;-82
2023/10/11 06:37:19;;;;;;;25.05;9.70;;;;;;;15.75;100.00;100959.56;4941099;28;20289;-80
2023/10/11 06:42:21;;;;;;;24.25;10.15;;;;;;;15.79;100.00;100957.72;4919348;29;20051;-79
2023/10/11 06:44:58;;;;;;;28.98;10.50;;;;;;;15.81;100.00;100965.66;4885619;28;20947;-78
2023/10/11 06:47:33;;;;;;;26.58;10.02;;;;;;;15.83;100.00;100946.13;4931868;29;20067;-79
2023/10/11 06:50:11;;;;;;;27.90;10.40;;;;;;;15.83;100.00;100951.44;4932588;29;20579;-79
2023/10/11 06:52:43;;;;;;;39.58;10.60;;;;;;;15.85;100.00;100957.59;4925988;28;20058;-79
2023/10/11 06:55:14;;;;;;;30.70;10.88;;;;;;;15.86;100.00;100955.81;4938272;29;20515;-79
2023/10/11 06:57:54;;;;;;;19.88;9.10;;;;;;;15.89;100.00;100942.50;4949144;28;20047;-80
2023/10/11 07:00:25;;;;;;;30.70;10.27;;;;;;;15.89;100.00;100938.06;4881253;28;20058;-79
2023/10/11 07:05:46;;;;;;;29.38;9.90;;;;;;;15.93;100.00;100942.41;4965331;28;20074;-80
2023/10/11 07:08:17;;;;;;;;;;;;;;;15.95;100.00;100940.63;4971012;28;20403;-79
2023/10/11 07:16:41;;;;;;;26.58;8.52;;;;;;;16.01;100.00;100933.41;4897502;29;20508;-80
2023/10/11 07:19:11;;;;;;;31.10;11.50;;;;;;;16.04;100.00;100930.72;4931881;28;20062;-79
2023/10/11 07:24:32;;;;;;;31.70;10.07;;;;;;;16.08;100.00;100924.44;4947223;28;20070;-80
2023/10/11 07:27:13;;;;;;;25.33;9.23;;;;;;;16.10;100.00;100935.91;4924122;28;20496;-79
2023/10/11 07:29:48;;;;;;;;;;;;;;;16.13;100.00;100949.16;4889701;28;21030;-79
2023/10/11 07:32:18;;;;;;;24.13;8.75;;;;;;;16.14;100.00;100949.16;4927847;28;19922;-80
2023/10/11 07:34:54;;;;;;;27.83;9.05;;;;;;;16.16;100.00;100946.44;4942672;28;20073;-79
2023/10/11 07:37:26;;;;;;;24.10;8.85;;;;;;;16.18;100.00;100944.63;4947808;28;20050;-79
2023/10/11 07:40:00;;;;;;;20.75;7.43;;;;;;;16.21;100.00;100933.94;4920841;29;20051;-79
2023/10/11 07:42:36;;;;;;;22.98;8.60;;;;;;;16.23;100.00;100937.44;4945055;28;20050;-79
2023/10/11 07:45:12;;;;;;;22.02;8.40;;;;;;;16.26;100.00;100936.53;4959204;28;20050;-79
2023/10/11 07:47:45;;;;;;;24.55;8.13;;;;;;;16.29;100.00;100916.03;4886464;28;20035;-79
2023/10/11 07:50:14;;;;;;;16.40;7.25;;;;;;;16.35;100.00;100917.72;4935478;28;20058;-79
2023/10/11 07:52:42;;;;;;;15.18;6.75;;;;;;;16.41;100.00;100922.03;4950380;28;20628;-80
2023/10/11 07:55:12;;;;;;;15.18;6.03;;;;;;;16.45;100.00;100942.38;4952524;28;20078;-79
2023/10/11 07:57:44;;;;;;;17.45;6.85;;;;;;;16.49;100.00;100947.59;4934758;28;20054;-80
2023/10/11 08:00:18;;;;;;;11.13;6.35;;;;;;;16.53;100.00;100951.94;4909488;28;20048;-80
2023/10/11 08:03:05;;;;;;;23.02;7.45;;;;;;;16.58;100.00;100938.56;4900636;28;20085;-79
2023/10/11 08:05:35;;;;;;;17.40;7.20;;;;;;;16.61;100.00;100949.13;4939818;28;20053;-79
2023/10/11 08:08:05;;;;;;;17.65;6.80;;;;;;;16.65;100.00;100950.81;4953005;28;20055;-80
2023/10/11 08:10:35;;;;;;;19.48;7.88;;;;;;;16.66;100.00;100939.25;4968955;28;20062;-78
2023/10/11 08:13:03;;;;;;;;;;;;;;;16.67;100.00;100942.78;4963055;28;20054;-79
2023/10/11 08:15:38;;;;;;;25.95;8.23;;;;;;;16.67;100.00;100949.00;4950704;28;20272;-80
2023/10/11 08:18:06;;;;;;;34.65;9.05;;;;;;;16.67;100.00;100958.75;4907394;28;20054;-80
2023/10/11 08:20:36;;;;;;;24.23;9.38;;;;;;;16.68;100.00;100952.53;4953245;28;20054;-79
2023/10/11 08:23:08;;;;;;;17.58;7.97;;;;;;;16.68;100.00;100949.88;4954004;28;20063;-79
2023/10/11 08:25:39;;;;;;;24.58;7.57;;;;;;;16.68;100.00;100957.88;4954352;28;20062;-81
2023/10/11 08:28:12;;;;;;;19.80;7.70;;;;;;;16.67;100.00;100946.34;4941354;28;20038;-82
2023/10/11 08:30:45;;;;;;;17.67;7.38;;;;;;;16.68;100.00;100949.88;4946657;29;20047;-82
2023/10/11 08:33:14;;;;;;;23.95;8.68;;;;;;;16.69;100.00;100946.28;4898679;28;20042;-81
2023/10/11 08:35:46;;;;;;;17.25;8.07;;;;;;;16.70;100.00;100961.38;4956993;28;20043;-81
2023/10/11 08:38:18;;;;;;;23.10;9.52;;;;;;;16.70;100.00;100970.22;4954113;28;20055;-80
2023/10/11 08:40:50;;;;;;;24.77;9.15;;;;;;;16.70;100.00;100985.31;4934543;28;20054;-81
2023/10/11 08:43:17;;;;;;;25.20;8.52;;;;;;;16.70;100.00;100972.88;4935128;28;20397;-80
2023/10/11 08:45:49;;;;;;;25.10;8.50;;;;;;;16.71;100.00;100973.75;4948218;28;20054;-81
2023/10/11 08:48:17;;;;;;;21.13;10.02;;;;;;;16.70;100.00;100964.91;4876293;28;20062;-80
2023/10/11 08:50:53;;;;;;;19.73;9.23;;;;;;;16.72;100.00;100963.06;4937125;28;20046;-80
2023/10/11 08:53:22;;;;;;;22.10;9.27;;;;;;;16.74;100.00;100971.03;4938427;28;20054;-80
2023/10/11 08:55:56;;;;;;;23.55;10.65;;;;;;;16.75;100.00;100980.78;4957769;28;20050;-80
2023/10/11 08:58:27;;;;;;;24.08;8.93;;;;;;;16.77;100.00;100982.50;4944868;28;20039;-81
2023/10/11 09:00:58;;;;;;;23.70;16.27;;;;;;;16.79;100.00;100994.91;4958950;28;20058;-81
2023/10/11 09:03:29;;;;;;;31.13;21.45;;;;;;;16.77;100.00;100987.81;4964900;28;20038;-81
2023/10/11 09:05:59;;;;;;;26.25;13.75;;;;;;;16.76;100.00;100988.72;4925426;28;20058;-80
2023/10/11 09:08:31;;;;;;;;;;;;;;;16.77;100.00;100992.28;4957340;28;20054;-80
2023/10/11 09:11:15;;;;;;;58.40;52.63;;;;;;;16.76;100.00;100995.81;4971716;28;20709;-80
2023/10/11 09:13:43;;;;;;;42.65;38.25;;;;;;;16.76;100.00;100986.06;4948687;28;20059;-79
2023/10/11 09:16:34;;;;;;;42.03;37.58;;;;;;;16.79;100.00;100994.91;4927795;28;20455;-79
2023/10/11 09:19:09;;;;;;;26.45;16.13;;;;;;;16.79;100.00;101001.09;4952571;28;20062;-79
2023/10/11 09:21:42;;;;;;;16.67;7.20;;;;;;;16.80;100.00;101016.16;4919445;28;20042;-79
2023/10/11 09:24:41;;;;;;;12.95;6.70;;;;;;;16.82;100.00;101032.09;4909485;29;20071;-79
2023/10/11 09:29:50;;;;;;;40.75;25.00;;;;;;;16.82;100.00;101033.00;4955031;28;20047;-79
2023/10/11 09:32:27;;;;;;;11.55;5.78;;;;;;;16.83;100.00;101036.56;4973392;28;20074;-79
2023/10/11 09:34:56;;;;;;;12.73;6.78;;;;;;;16.80;100.00;101032.09;4936663;29;20051;-80
2023/10/11 09:37:24;;;;;;;17.38;12.10;;;;;;;16.83;100.00;101012.59;4914770;28;20049;-80
2023/10/11 09:40:05;;;;;;;19.98;12.82;;;;;;;16.86;100.00;101024.06;4932110;28;20054;-80
2023/10/11 09:42:35;;;;;;;14.35;6.53;;;;;;;16.93;100.00;101024.78;4957105;28;20496;-80
2023/10/11 09:45:04;;;;;;;26.23;19.60;;;;;;;16.98;100.00;101030.03;4972272;28;20051;-80
2023/10/11 09:47:34;;;;;;;9.73;5.95;;;;;;;17.02;100.00;101039.72;4938241;28;20317;-80
2023/10/11 09:50:02;;;;;;;10.27;5.00;;;;;;;17.06;100.00;101046.72;4956469;28;20046;-80
2023/10/11 09:52:29;;;;;;;10.55;4.93;;;;;;;17.09;100.00;101041.34;4882278;28;20050;-80
2023/10/11 09:55:04;;;;;;;10.27;4.65;;;;;;;17.14;100.00;101039.44;4939854;28;20085;-80
2023/10/11 09:57:58;;;;;;;7.13;4.70;;;;;;;17.17;100.00;101044.72;4956259;28;20050;-81
2023/10/11 10:00:42;;;;;;;8.68;4.68;;;;;;;17.20;100.00;101046.44;4938937;28;20539;-80
2023/10/11 10:03:13;;;;;;;10.02;4.60;;;;;;;17.22;100.00;101036.63;4965914;28;20054;-80
2023/10/11 10:06:18;;;;;;;10.60;5.80;;;;;;;17.24;100.00;101032.13;4921025;28;20046;-80
2023/10/11 10:12:22;;;;;;;10.65;5.00;;;;;;;17.38;100.00;101031.84;4974560;28;20067;-77
2023/10/11 10:15:01;;;;;;;12.30;4.75;;;;;;;17.48;100.00;101020.06;4938161;28;20047;-78
2023/10/11 10:17:30;;;;;;;9.55;5.13;;;;;;;17.58;100.00;101002.97;4951098;28;20055;-78
2023/10/11 10:20:33;;;;;;;11.77;5.68;;;;;;;17.72;100.00;101013.31;4948491;28;20507;-78
2023/10/11 10:23:16;;;;;;;7.22;4.60;;;;;;;17.83;100.00;101008.59;4909033;28;20046;-77
2023/10/11 10:26:05;;;;;;;13.35;5.93;;;;;;;17.86;100.00;101021.88;4922343;28;20060;-77
2023/10/11 10:28:36;;;;;;;13.15;5.20;;;;;;;17.85;100.00;101022.78;4949165;28;20075;-78
2023/10/11 10:31:21;;;;;;;15.00;6.25;;;;;;;17.83;100.00;101029.91;4922408;28;20053;-78
2023/10/11 10:34:13;;;;;;;7.72;5.22;;;;;;;17.72;100.00;101029.28;4948956;28;20707;-77
2023/10/11 10:36:43;;;;;;;6.95;4.38;;;;;;;17.68;100.00;101016.97;4950428;28;20062;-78
2023/10/11 10:41:40;;;;;;;8.07;4.53;;;;;;;17.59;100.00;101006.50;4955716;28;20065;-78
2023/10/11 10:44:16;;;;;;;10.75;4.82;;;;;;;17.59;100.00;100994.06;4962007;28;20415;-78
2023/10/11 10:46:53;;;;;;;7.55;4.75;;;;;;;17.72;100.00;101002.66;4947655;28;20051;-77
2023/10/11 10:49:29;;;;;;;16.30;5.80;;;;;;;17.79;100.00;100996.25;4945267;28;20046;-78
2023/10/11 10:51:57;;;;;;;11.80;5.00;;;;;;;17.88;100.00;100985.41;4954250;28;20080;-78
2023/10/11 10:54:25;;;;;;;10.73;4.18;;;;;;;17.97;100.00;100975.41;4888271;28;20050;-77
2023/10/11 10:56:57;;;;;;;7.10;4.18;;;;;;;18.02;100.00;100979.72;4925345;29;20047;-78
2023/10/11 10:59:26;;;;;;;9.35;4.43;;;;;;;18.08;100.00;100984.88;4939797;29;20055;-77
2023/10/11 11:01:53;;;;;;;7.28;3.92;;;;;;;18.14;100.00;100988.31;4922908;29;20047;-78
2023/10/11 11:04:29;;;;;;;8.52;4.70;;;;;;;18.17;100.00;100991.78;4953107;28;20524;-78
2023/10/11 11:06:58;;;;;;;8.07;3.55;;;;;;;18.19;100.00;100983.75;4931570;28;20464;-78
2023/10/11 11:09:25;;;;;;;8.15;3.85;;;;;;;18.19;100.00;100979.28;4884296;28;20074;-77
2023/10/11 11:12:04;;;;;;;14.77;4.10;;;;;;;18.26;100.00;100983.53;4947610;28;20053;-78
2023/10/11 11:14:32;;;;;;;298.05;233.85;;;;;;;18.31;100.00;100988.75;4945254;28;20054;-78
2023/10/11 11:17:00;;;;;;;24.98;17.90;;;;;;;18.35;100.00;100995.75;4920377;28;20092;-78
2023/10/11 11:19:34;;;;;;;6.15;3.28;;;;;;;18.35;100.00;100987.72;4948883;28;20062;-77
2023/10/11 11:22:11;;;;;;;9.23;3.35;;;;;;;18.33;100.00;101000.25;4940578;28;20043;-78
2023/10/11 11:24:41;;;;;;;8.75;3.35;;;;;;;18.33;100.00;100999.38;4908781;28;20057;-78
2023/10/11 11:27:29;;;;;;;8.20;2.60;;;;;;;18.34;100.00;100994.00;4937509;28;20058;-78
2023/10/11 11:30:15;;;;;;;;;;;;;;;18.28;100.00;101004.84;4953764;28;20051;-77
2023/10/11 11:32:45;;;;;;;7.75;3.30;;;;;;;18.26;100.00;100999.53;4927034;28;19937;-78
2023/10/11 11:35:28;;;;;;;10.65;3.20;;;;;;;18.24;100.00;100993.38;4914950;28;20054;-78
2023/10/11 11:38:06;;;;;;;7.50;3.25;;;;;;;18.30;100.00;100997.69;4938243;28;20050;-78
2023/10/11 11:40:38;;;;;;;7.22;3.08;;;;;;;18.33;100.00;101004.72;4911547;28;20059;-78
2023/10/11 11:43:06;;;;;;;7.78;3.10;;;;;;;18.33;100.00;100994.91;4970118;28;20058;-78
2023/10/11 11:45:36;;;;;;;5.22;2.97;;;;;;;18.35;100.00;100994.88;4969482;28;20058;-77
2023/10/11 11:48:05;;;;;;;7.78;4.22;;;;;;;18.35;100.00;100992.19;4921127;28;20055;-77
2023/10/11 11:50:33;;;;;;;7.15;2.92;;;;;;;18.35;100.00;100989.53;4950108;28;20042;-78
2023/10/11 11:53:01;;;;;;;9.35;3.22;;;;;;;18.37;100.00;100993.03;4956015;28;20484;-77
2023/10/11 11:55:29;;;;;;;10.07;3.40;;;;;;;18.38;100.00;100994.81;4909054;28;20059;-78
2023/10/11 11:57:58;;;;;;;8.93;3.10;;;;;;;18.41;100.00;100963.59;4950027;28;20050;-78
2023/10/11 12:02:58;;;;;;;4.90;3.00;;;;;;;18.52;100.00;100960.59;4956674;28;20069;-78
2023/10/11 12:05:27;;;;;;;9.48;3.03;;;;;;;18.60;100.00;100958.59;4937155;28;20043;-77
2023/10/11 12:07:58;;;;;;;11.15;2.90;;;;;;;18.65;100.00;100966.47;4946025;28;20427;-77
2023/10/11 12:10:25;;;;;;;7.60;2.97;;;;;;;18.65;100.00;100950.44;4894805;28;20055;-77
2023/10/11 12:12:54;;;;;;;5.22;2.63;;;;;;;18.62;100.00;100969.22;4962377;28;20519;-77
2023/10/11 12:15:22;;;;;;;5.70;2.35;;;;;;;18.61;100.00;100973.69;4924699;28;20046;-78
2023/10/11 12:17:53;;;;;;;3.83;2.25;;;;;;;18.66;100.00;100970.91;4962847;28;20557;-77
2023/10/11 12:20:33;;;;;;;5.80;2.72;;;;;;;18.65;100.00;100956.66;4925244;28;20050;-79
2023/10/11 12:23:07;;;;;;;;;;;;;;;18.68;100.00;100951.25;4921875;28;20054;-78
2023/10/11 12:25:36;;;;;;;5.30;2.42;;;;;;;18.74;100.00;100957.34;4917354;28;19929;-81